createdAt,value
2023-01-03T00:02:00.692Z,3.08
2023-01-03T00:06:54.029Z,2.28
2023-01-03T00:12:06.311Z,4.05
2023-01-03T00:16:59.652Z,6.40
2023-01-03T00:21:51.592Z,7.07
2023-01-03T00:26:43.997Z,5.75
2023-01-03T00:31:36.874Z,4.53
2023-01-03T00:36:28.651Z,4.30
2023-01-03T00:41:20.833Z,6.97
2023-01-03T00:46:14.793Z,9.63
2023-01-03T00:51:11.446Z,4.88
2023-01-03T00:56:09.466Z,6.72
2023-01-03T01:01:18.831Z,5.65
2023-01-03T01:06:14.336Z,6.10
2023-01-03T01:11:06.324Z,7.25
2023-01-03T01:16:06.092Z,6.80
2023-01-03T01:20:58.114Z,5.63
2023-01-03T01:25:49.894Z,6.03
2023-01-03T01:30:41.557Z,7.53
2023-01-03T01:35:33.354Z,9.35
2023-01-03T01:40:25.154Z,7.53
2023-01-03T01:45:16.951Z,8.68
2023-01-03T01:50:40.019Z,8.88
2023-01-03T01:55:37.216Z,9.75
2023-01-03T02:00:30.262Z,12.02
2023-01-03T02:05:23.345Z,8.45
2023-01-03T02:10:15.317Z,8.00
2023-01-03T02:15:30.819Z,7.93
2023-01-03T02:20:54.954Z,13.23
2023-01-03T02:26:05.411Z,7.60
2023-01-03T02:30:57.019Z,6.78
2023-01-03T02:36:06.057Z,9.10
2023-01-03T02:41:04.600Z,7.18
2023-01-03T02:46:09.296Z,8.88
2023-01-03T02:51:05.359Z,11.00
2023-01-03T02:56:02.092Z,8.00
2023-01-03T03:00:56.458Z,8.63
2023-01-03T03:06:09.298Z,7.68
2023-01-03T03:11:19.543Z,6.38
2023-01-03T03:16:49.439Z,7.95
2023-01-03T03:21:59.638Z,7.95
2023-01-03T03:26:54.030Z,8.32
2023-01-03T03:31:50.413Z,13.75
2023-01-03T03:37:05.169Z,7.75
2023-01-03T03:42:25.313Z,11.50
2023-01-03T03:47:36.172Z,5.90
2023-01-03T03:52:30.721Z,8.10
2023-01-03T03:57:33.987Z,8.45
2023-01-03T04:02:29.341Z,7.82
2023-01-03T04:07:21.215Z,10.73
2023-01-03T04:12:12.879Z,8.57
2023-01-03T04:17:04.560Z,6.68
2023-01-03T04:21:56.343Z,9.30
2023-01-03T04:26:48.528Z,6.90
2023-01-03T04:31:40.278Z,10.65
2023-01-03T04:36:31.954Z,9.07
2023-01-03T04:41:23.581Z,13.50
2023-01-03T04:46:15.417Z,9.82
2023-01-03T04:51:07.160Z,8.45
2023-01-03T04:55:58.953Z,11.00
2023-01-03T05:00:50.753Z,15.02
2023-01-03T05:05:42.723Z,14.25
2023-01-03T05:10:35.044Z,17.60
2023-01-03T05:15:31.011Z,11.63
2023-01-03T05:20:42.120Z,9.27
2023-01-03T05:25:51.844Z,15.38
2023-01-03T05:30:43.588Z,18.33
2023-01-03T05:35:35.265Z,11.65
2023-01-03T05:40:27.055Z,14.05
2023-01-03T05:45:19.548Z,13.20
2023-01-03T05:50:11.335Z,14.73
2023-01-03T05:55:02.998Z,13.52
2023-01-03T05:59:54.852Z,12.65
2023-01-03T06:04:46.573Z,14.32
2023-01-03T06:09:38.336Z,15.35
2023-01-03T06:14:29.984Z,13.82
2023-01-03T06:19:21.680Z,14.30
2023-01-03T06:24:13.368Z,12.52
2023-01-03T06:29:05.805Z,11.00
2023-01-03T06:33:57.440Z,11.95
2023-01-03T06:38:49.480Z,9.07
2023-01-03T06:43:42.067Z,17.25
2023-01-03T06:48:52.496Z,11.88
2023-01-03T06:53:44.209Z,14.63
2023-01-03T06:58:36.793Z,9.55
2023-01-03T07:03:28.542Z,11.00
2023-01-03T07:08:20.886Z,10.23
2023-01-03T07:13:31.512Z,9.35
2023-01-03T07:18:23.316Z,7.93
2023-01-03T07:23:15.178Z,8.90
2023-01-03T07:28:11.576Z,9.48
2023-01-03T07:33:03.283Z,7.65
2023-01-03T07:37:55.063Z,10.50
2023-01-03T07:43:05.307Z,8.05
2023-01-03T07:47:57.266Z,11.07
2023-01-03T07:52:48.893Z,8.90
2023-01-03T07:57:40.554Z,10.88
2023-01-03T08:02:32.377Z,8.45
2023-01-03T08:07:24.436Z,13.98
2023-01-03T08:12:34.776Z,8.45
2023-01-03T08:17:27.699Z,9.93
2023-01-03T08:22:19.411Z,11.00
2023-01-03T08:27:11.151Z,7.75
2023-01-03T08:32:03.153Z,10.70
2023-01-03T08:37:03.213Z,11.88
2023-01-03T08:42:05.017Z,8.20
2023-01-03T08:46:59.459Z,9.85
2023-01-03T08:51:51.298Z,9.65
2023-01-03T08:56:43.264Z,8.02
2023-01-03T09:01:35.217Z,9.73
2023-01-03T09:06:26.934Z,11.38
2023-01-03T09:11:18.829Z,8.25
2023-01-03T09:16:13.285Z,10.93
2023-01-03T09:21:05.613Z,5.68
2023-01-03T09:25:57.582Z,7.47
2023-01-03T09:30:49.410Z,5.35
2023-01-03T09:35:41.214Z,7.50
2023-01-03T09:40:38.495Z,10.10
2023-01-03T09:45:34.980Z,7.13
2023-01-03T09:50:50.805Z,7.38
2023-01-03T09:56:14.573Z,7.90
2023-01-03T10:01:51.422Z,6.68
2023-01-03T10:07:24.654Z,9.23
2023-01-03T10:12:40.607Z,4.88
2023-01-03T10:18:23.433Z,10.63
2023-01-03T10:23:16.555Z,12.40
2023-01-03T10:28:26.765Z,7.80
2023-01-03T10:33:29.088Z,5.38
2023-01-03T10:38:23.156Z,4.93
2023-01-03T10:43:33.473Z,6.28
2023-01-03T10:48:26.845Z,9.65
2023-01-03T10:53:22.153Z,6.05
2023-01-03T10:58:28.035Z,11.10
2023-01-03T11:08:23.813Z,6.85
2023-01-03T11:13:38.963Z,5.30
2023-01-03T11:18:31.704Z,6.35
2023-01-03T11:23:55.499Z,10.85
2023-01-03T11:29:05.563Z,8.55
2023-01-03T11:34:14.259Z,5.82
2023-01-03T11:39:35.320Z,3.63
2023-01-03T11:44:26.957Z,4.03
2023-01-03T11:49:33.766Z,3.13
2023-01-03T11:54:31.407Z,3.50
2023-01-03T11:59:58.594Z,4.43
2023-01-03T12:05:22.484Z,4.15
2023-01-03T12:10:30.119Z,2.08
2023-01-03T12:15:25.189Z,1.20
2023-01-03T12:20:41.001Z,3.38
2023-01-03T12:25:42.559Z,1.88
2023-01-03T12:30:41.197Z,2.53
2023-01-03T12:35:48.013Z,2.78
2023-01-03T12:40:51.255Z,0.95
2023-01-03T12:46:01.197Z,1.58
2023-01-03T12:50:55.256Z,2.85
2023-01-03T12:56:24.485Z,1.08
2023-01-03T13:01:34.837Z,7.93
2023-01-03T13:06:35.842Z,4.35
2023-01-03T13:11:27.474Z,1.27
2023-01-03T13:16:40.031Z,5.03
2023-01-03T13:21:53.126Z,5.95
2023-01-03T13:27:20.685Z,3.53
2023-01-03T13:32:18.204Z,3.92
2023-01-03T13:37:16.403Z,2.80
2023-01-03T13:42:19.152Z,1.42
2023-01-03T13:47:38.386Z,2.95
2023-01-03T13:52:38.814Z,5.38
2023-01-03T13:57:51.501Z,2.63
2023-01-03T14:03:00.454Z,2.33
2023-01-03T14:08:05.567Z,3.15
2023-01-03T14:13:06.562Z,1.10
2023-01-03T14:18:02.367Z,3.35
2023-01-03T14:22:56.088Z,4.28
2023-01-03T14:27:48.013Z,3.58
2023-01-03T14:32:40.107Z,2.95
2023-01-03T14:37:34.974Z,2.85
2023-01-03T14:42:27.339Z,2.47
2023-01-03T14:47:19.429Z,3.20
2023-01-03T14:52:34.144Z,2.80
2023-01-03T14:57:28.254Z,0.73
2023-01-03T15:02:20.918Z,1.42
2023-01-03T15:07:31.525Z,2.33
2023-01-03T15:12:23.325Z,2.30
2023-01-03T15:17:16.798Z,3.33
2023-01-03T15:22:18.942Z,1.17
2023-01-03T15:27:33.108Z,2.20
2023-01-03T15:32:24.931Z,3.38
2023-01-03T15:37:24.332Z,2.22
2023-01-03T15:42:50.186Z,2.70
2023-01-03T15:47:49.074Z,6.28
2023-01-03T15:52:41.223Z,5.10
2023-01-03T15:57:33.625Z,1.50
2023-01-03T16:02:26.103Z,1.38
2023-01-03T16:07:18.507Z,4.28
2023-01-03T16:12:16.086Z,2.55
2023-01-03T16:17:17.073Z,3.70
2023-01-03T16:27:26.051Z,4.03
2023-01-03T16:32:22.717Z,1.77
2023-01-03T16:37:14.556Z,2.08
2023-01-03T16:42:15.481Z,1.40
2023-01-03T16:47:15.875Z,1.90
2023-01-03T16:52:07.542Z,2.65
2023-01-03T16:56:59.212Z,2.20
2023-01-03T17:01:51.789Z,0.98
2023-01-03T17:06:44.945Z,1.45
2023-01-03T17:11:38.034Z,2.45
2023-01-03T17:16:31.960Z,1.80
2023-01-03T17:21:28.678Z,3.38
2023-01-03T17:26:22.785Z,2.78
2023-01-03T17:31:16.673Z,3.15
2023-01-03T17:36:34.671Z,1.35
2023-01-03T17:41:27.143Z,1.80
2023-01-03T17:46:38.718Z,2.05
2023-01-03T17:51:30.573Z,2.47
2023-01-03T17:56:22.266Z,2.05
2023-01-03T18:01:15.292Z,1.92
2023-01-03T18:06:21.289Z,2.70
2023-01-03T18:11:17.472Z,1.80
2023-01-03T18:16:15.708Z,2.40
2023-01-03T18:21:25.215Z,1.73
2023-01-03T18:26:17.296Z,1.70
2023-01-03T18:31:15.840Z,3.60
2023-01-03T18:36:19.649Z,1.67
2023-01-03T18:41:22.020Z,1.45
2023-01-03T18:46:15.699Z,1.27
2023-01-03T18:51:13.255Z,4.50
2023-01-03T18:56:05.014Z,2.30
2023-01-03T19:00:56.614Z,3.70
2023-01-03T19:05:49.404Z,4.00
2023-01-03T19:10:41.047Z,2.42
2023-01-03T19:15:32.692Z,2.25
2023-01-03T19:20:27.036Z,1.10
2023-01-03T19:25:29.029Z,1.55
2023-01-03T19:30:31.843Z,1.63
2023-01-03T19:35:27.645Z,1.50
2023-01-03T19:40:23.003Z,1.35
2023-01-03T19:45:21.523Z,2.55
2023-01-03T19:50:28.236Z,0.90
2023-01-03T19:55:22.753Z,0.82
2023-01-03T20:00:31.867Z,1.50
2023-01-03T20:05:35.127Z,0.75
2023-01-03T20:10:27.480Z,0.50
2023-01-03T20:15:28.887Z,0.70
2023-01-03T20:20:21.759Z,0.60
2023-01-03T20:25:34.479Z,0.70
2023-01-03T20:30:28.953Z,0.65
2023-01-03T20:40:35.408Z,0.50
2023-01-03T20:45:27.192Z,0.77
2023-01-03T20:50:22.046Z,0.80
2023-01-03T20:55:16.738Z,0.50
2023-01-03T21:00:21.048Z,0.68
2023-01-03T21:05:12.709Z,1.50
2023-01-03T21:10:05.010Z,1.02
2023-01-03T21:14:56.663Z,1.00
2023-01-03T21:19:48.447Z,1.92
2023-01-03T21:24:42.763Z,1.00
2023-01-03T21:29:37.681Z,0.70
2023-01-03T21:34:30.673Z,1.33
2023-01-03T21:39:22.445Z,0.45
2023-01-03T21:44:14.113Z,0.15
2023-01-03T21:49:05.813Z,0.35
2023-01-03T21:53:57.583Z,0.40
2023-01-03T21:58:49.324Z,0.65
2023-01-03T22:03:59.766Z,0.43
2023-01-03T22:08:51.603Z,0.43
2023-01-03T22:13:43.342Z,1.17
2023-01-03T22:18:35.419Z,0.88
2023-01-03T22:23:27.174Z,1.00
2023-01-03T22:28:18.809Z,0.32
2023-01-03T22:33:10.655Z,0.20
2023-01-03T22:38:02.397Z,0.30
2023-01-03T22:42:54.839Z,0.95
2023-01-03T22:47:46.572Z,0.70
2023-01-03T22:52:39.662Z,2.47
2023-01-03T22:57:31.356Z,1.77
2023-01-03T23:02:28.542Z,1.27
2023-01-03T23:07:20.864Z,3.40
2023-01-03T23:12:31.216Z,2.25
2023-01-03T23:17:41.551Z,1.45
2023-01-03T23:22:33.126Z,0.57
2023-01-03T23:27:27.516Z,0.70
2023-01-03T23:32:19.246Z,0.68
2023-01-03T23:37:11.127Z,4.55
2023-01-03T23:42:02.962Z,1.60
2023-01-03T23:46:54.645Z,0.77
2023-01-03T23:51:46.298Z,2.08
2023-01-03T23:56:38.240Z,1.00
